Terminal Aerodrome Forecast
Issued by NWS

Home | Current Version | Previous Version | Text Only | Print | Product List | Glossary On
Versions: 1 2 3 4 5 6 7 8 9 10 11 12 13
000
FTAK31 PAJN 290521
TAFAPG
TAF
PAPG 290521Z 2906/3006 VRB04KT P6SM VCSH SCT025 BKN040
     FM290800 VRB03KT P6SM VCSH BKN015 OVC025
     FM291000 VRB03KT 3SM BR BKN005 OVC015
     FM291800 05005KT P6SM VCSH SCT015 BKN025 OVC040
     FM300000 04005KT 6SM -SHRA SCT015 OVC025
      AMD LTD TO CLD VIS AND WIND 2906/2915=

USA.gov is the U.S. government's official web portal to all federal, state and local government web resources and services.